Time;durP1;ratioP1;P1;durP2;ratioP2;P2;SDS_P1;SDS_P2;PMS_P1;PMS_P2;Temp;Humidity;BMP_temperature;BMP_pressure;BME280_temperature;BME280_humidity;BME280_pressure;Samples;Min_cycle;Max_cycle;Signal;HPM_P1;HPM_P2
2024/01/23 00:00:49;;;;;;;29.00;5.70;;;;;;;;;;5113289;28;20197;-81
2024/01/23 00:03:16;;;;;;;24.07;5.13;;;;;;;;;;5112519;28;20194;-80
2024/01/23 00:05:43;;;;;;;29.63;5.13;;;;;;;;;;5112176;28;20959;-80
2024/01/23 00:08:10;;;;;;;25.57;4.33;;;;;;;;;;5112744;27;20681;-81
2024/01/23 00:10:39;;;;;;;16.27;4.27;;;;;;;;;;5113128;28;20631;-79
2024/01/23 00:13:06;;;;;;;21.70;4.83;;;;;;;;;;5112389;28;20396;-80
2024/01/23 00:15:33;;;;;;;25.07;4.33;;;;;;;;;;5112944;28;20284;-80
2024/01/23 00:18:00;;;;;;;24.27;3.77;;;;;;;;;;5112165;28;20245;-81
2024/01/23 00:20:28;;;;;;;23.37;3.93;;;;;;;;;;5112781;28;20255;-80
2024/01/23 00:22:56;;;;;;;23.87;4.30;;;;;;;;;;5112493;28;20293;-81
2024/01/23 00:25:23;;;;;;;27.77;3.90;;;;;;;;;;5112924;28;20261;-81
2024/01/23 00:27:52;;;;;;;20.80;3.90;;;;;;;;;;5112339;28;20230;-81
2024/01/23 00:30:20;;;;;;;23.90;4.23;;;;;;;;;;5111393;28;20228;-80
2024/01/23 00:32:50;;;;;;;23.57;4.17;;;;;;;;;;5110974;28;20204;-81
2024/01/23 00:35:17;;;;;;;22.83;4.17;;;;;;;;;;5111619;28;20190;-79
2024/01/23 00:37:44;;;;;;;22.20;4.40;;;;;;;;;;5112665;28;20200;-81
2024/01/23 00:40:12;;;;;;;26.20;4.43;;;;;;;;;;5112349;28;20217;-81
2024/01/23 00:42:39;;;;;;;26.57;3.70;;;;;;;;;;5111394;28;20669;-80
2024/01/23 00:45:08;;;;;;;26.60;4.03;;;;;;;;;;5111839;28;20309;-81
2024/01/23 00:47:35;;;;;;;19.23;4.03;;;;;;;;;;5112487;28;20737;-79
2024/01/23 00:50:02;;;;;;;25.03;4.40;;;;;;;;;;5111875;28;20748;-81
2024/01/23 00:52:29;;;;;;;33.67;4.03;;;;;;;;;;5111970;28;20194;-80
2024/01/23 00:55:02;;;;;;;26.13;4.17;;;;;;;;;;5111977;28;20777;-81
2024/01/23 00:57:29;;;;;;;23.17;4.63;;;;;;;;;;5111886;28;20194;-80
2024/01/23 00:59:56;;;;;;;29.33;4.07;;;;;;;;;;5111455;28;20206;-81
2024/01/23 01:02:25;;;;;;;22.13;4.17;;;;;;;;;;5112059;28;20233;-79
2024/01/23 01:04:52;;;;;;;24.90;4.77;;;;;;;;;;5112137;28;20202;-80
2024/01/23 01:07:19;;;;;;;23.20;4.60;;;;;;;;;;5111801;28;20254;-80
2024/01/23 01:09:46;;;;;;;20.73;4.27;;;;;;;;;;5111670;28;20288;-80
2024/01/23 01:12:13;;;;;;;31.80;5.03;;;;;;;;;;5111382;28;20281;-81
2024/01/23 01:14:40;;;;;;;28.07;4.97;;;;;;;;;;5111469;28;20194;-80
2024/01/23 01:17:08;;;;;;;28.40;5.10;;;;;;;;;;5112007;28;20288;-81
2024/01/23 01:19:36;;;;;;;23.33;5.07;;;;;;;;;;5112068;28;20200;-80
2024/01/23 01:22:05;;;;;;;29.50;6.03;;;;;;;;;;5111440;28;20197;-80
2024/01/23 01:24:32;;;;;;;32.23;6.07;;;;;;;;;;5111313;28;20701;-81
2024/01/23 01:27:00;;;;;;;31.20;5.43;;;;;;;;;;5111682;28;20694;-80
2024/01/23 01:29:27;;;;;;;29.03;5.43;;;;;;;;;;5110631;28;20645;-80
2024/01/23 01:31:54;;;;;;;27.53;5.07;;;;;;;;;;5111655;28;20288;-80
2024/01/23 01:34:21;;;;;;;25.63;4.93;;;;;;;;;;5111299;28;20194;-80
2024/01/23 01:36:50;;;;;;;24.37;5.40;;;;;;;;;;5111617;28;20303;-80
2024/01/23 01:39:17;;;;;;;25.37;5.00;;;;;;;;;;5111244;28;20288;-80
2024/01/23 01:41:44;;;;;;;33.77;5.23;;;;;;;;;;5111170;28;20658;-80
2024/01/23 01:44:11;;;;;;;29.47;5.73;;;;;;;;;;5111158;28;20289;-80
2024/01/23 01:46:39;;;;;;;29.07;5.10;;;;;;;;;;5111280;28;20260;-80
2024/01/23 01:49:06;;;;;;;32.67;5.33;;;;;;;;;;5111770;28;20644;-80
2024/01/23 01:51:33;;;;;;;32.37;5.20;;;;;;;;;;5111150;28;20693;-80
2024/01/23 01:54:04;;;;;;;31.33;5.00;;;;;;;;;;5113751;28;20196;-80
2024/01/23 01:56:31;;;;;;;28.43;5.10;;;;;;;;;;5115840;28;20701;-80
2024/01/23 01:58:59;;;;;;;26.93;4.97;;;;;;;;;;5114839;28;20225;-81
2024/01/23 02:01:27;;;;;;;32.70;5.00;;;;;;;;;;5115329;28;20251;-79
2024/01/23 02:03:54;;;;;;;24.10;4.90;;;;;;;;;;5115402;28;20221;-81
2024/01/23 02:06:21;;;;;;;28.83;4.60;;;;;;;;;;5114929;28;20313;-80
2024/01/23 02:08:50;;;;;;;26.10;4.43;;;;;;;;;;5115294;28;20691;-80
2024/01/23 02:11:18;;;;;;;24.63;4.13;;;;;;;;;;5115091;28;20198;-80
2024/01/23 02:13:46;;;;;;;25.73;3.80;;;;;;;;;;5114516;27;20789;-81
2024/01/23 02:16:13;;;;;;;25.83;4.40;;;;;;;;;;5115070;28;20230;-80
2024/01/23 02:18:40;;;;;;;27.20;4.30;;;;;;;;;;5115385;28;20292;-80
2024/01/23 02:21:09;;;;;;;30.63;4.43;;;;;;;;;;5115054;28;20194;-81
2024/01/23 02:23:37;;;;;;;26.90;4.13;;;;;;;;;;5114850;27;20635;-81
2024/01/23 02:26:04;;;;;;;26.73;4.27;;;;;;;;;;5114397;28;20249;-81
2024/01/23 02:28:32;;;;;;;31.33;4.80;;;;;;;;;;5114578;28;20273;-80
2024/01/23 02:30:59;;;;;;;28.93;5.20;;;;;;;;;;5115044;28;20288;-81
2024/01/23 02:33:26;;;;;;;28.53;4.30;;;;;;;;;;5114668;28;20280;-80
2024/01/23 02:35:53;;;;;;;25.40;4.90;;;;;;;;;;5114448;28;20198;-80
2024/01/23 02:38:20;;;;;;;26.90;4.03;;;;;;;;;;5114614;28;20301;-81
2024/01/23 02:40:49;;;;;;;28.97;4.73;;;;;;;;;;5114711;28;20228;-81
2024/01/23 02:43:16;;;;;;;32.67;5.37;;;;;;;;;;5114190;28;20232;-80
2024/01/23 02:45:43;;;;;;;31.00;4.57;;;;;;;;;;5114929;28;20229;-80
2024/01/23 02:48:10;;;;;;;34.53;5.20;;;;;;;;;;5114167;28;20266;-80
2024/01/23 02:50:38;;;;;;;32.83;5.33;;;;;;;;;;5114162;28;20293;-80
2024/01/23 02:53:05;;;;;;;35.67;5.67;;;;;;;;;;5114754;28;20285;-80
2024/01/23 02:55:32;;;;;;;34.57;5.00;;;;;;;;;;5113976;28;20553;-80
2024/01/23 02:58:00;;;;;;;26.67;5.63;;;;;;;;;;5105770;28;20656;-81
2024/01/23 03:00:27;;;;;;;28.80;5.00;;;;;;;;;;5102303;28;20234;-80
2024/01/23 03:02:55;;;;;;;24.60;4.67;;;;;;;;;;5093941;28;20284;-79
2024/01/23 03:05:22;;;;;;;34.50;5.87;;;;;;;;;;5093146;28;20222;-80
2024/01/23 03:07:50;;;;;;;32.20;5.33;;;;;;;;;;5093791;28;20281;-80
2024/01/23 03:10:17;;;;;;;30.17;5.57;;;;;;;;;;5093332;28;20230;-80
2024/01/23 03:12:46;;;;;;;32.00;6.07;;;;;;;;;;5093748;28;20257;-79
2024/01/23 03:15:14;;;;;;;41.57;6.47;;;;;;;;;;5093402;28;20238;-81
2024/01/23 03:17:41;;;;;;;38.50;6.27;;;;;;;;;;5093301;28;20293;-80
2024/01/23 03:20:09;;;;;;;35.47;6.80;;;;;;;;;;5093088;28;20230;-80
2024/01/23 03:22:36;;;;;;;35.93;6.70;;;;;;;;;;5093252;28;20217;-81
2024/01/23 03:25:05;;;;;;;39.17;6.07;;;;;;;;;;5092890;28;20248;-80
2024/01/23 03:27:32;;;;;;;32.37;6.87;;;;;;;;;;5092853;28;20324;-80
2024/01/23 03:29:59;;;;;;;32.87;6.03;;;;;;;;;;5093192;28;20205;-80
2024/01/23 03:32:28;;;;;;;37.80;6.87;;;;;;;;;;5093084;28;20295;-81
2024/01/23 03:34:55;;;;;;;29.17;5.90;;;;;;;;;;5093485;28;20277;-80
2024/01/23 03:37:22;;;;;;;30.07;5.43;;;;;;;;;;5106752;28;20205;-80
2024/01/23 03:39:49;;;;;;;26.93;4.43;;;;;;;;;;5112779;28;20204;-81
2024/01/23 03:42:16;;;;;;;29.60;5.23;;;;;;;;;;5113291;28;20284;-80
2024/01/23 03:44:43;;;;;;;29.07;4.80;;;;;;;;;;5113603;28;20225;-80
2024/01/23 03:47:11;;;;;;;37.43;4.97;;;;;;;;;;5112609;28;20264;-80
2024/01/23 03:49:39;;;;;;;32.30;4.67;;;;;;;;;;5113052;28;20756;-80
2024/01/23 03:52:06;;;;;;;34.47;4.80;;;;;;;;;;5113428;28;20204;-80
2024/01/23 03:54:34;;;;;;;36.37;5.30;;;;;;;;;;5112929;28;20218;-80
2024/01/23 03:57:01;;;;;;;26.50;4.83;;;;;;;;;;5113041;28;20241;-81
2024/01/23 03:59:28;;;;;;;33.00;4.80;;;;;;;;;;5113027;28;20277;-80
2024/01/23 04:01:55;;;;;;;37.40;5.87;;;;;;;;;;5112918;28;20228;-79
2024/01/23 04:04:22;;;;;;;24.40;4.37;;;;;;;;;;5112979;28;20203;-81
2024/01/23 04:06:51;;;;;;;33.90;4.57;;;;;;;;;;5113125;28;20313;-80
2024/01/23 04:09:18;;;;;;;28.93;4.67;;;;;;;;;;5112488;28;20197;-80
2024/01/23 04:11:47;;;;;;;32.43;5.90;;;;;;;;;;5113121;28;20291;-81
2024/01/23 04:14:14;;;;;;;32.37;4.90;;;;;;;;;;5112435;28;20740;-80
2024/01/23 04:16:41;;;;;;;41.37;6.20;;;;;;;;;;5111441;28;20693;-81
2024/01/23 04:19:08;;;;;;;29.20;5.23;;;;;;;;;;5112209;28;20311;-80
2024/01/23 04:21:35;;;;;;;37.20;5.67;;;;;;;;;;5112377;28;20198;-80
2024/01/23 04:24:04;;;;;;;40.13;6.93;;;;;;;;;;5111902;28;20301;-80
2024/01/23 04:26:32;;;;;;;35.53;6.67;;;;;;;;;;5112789;28;20227;-80
2024/01/23 04:28:59;;;;;;;35.10;6.70;;;;;;;;;;5112543;28;20219;-81
2024/01/23 04:31:26;;;;;;;35.40;7.03;;;;;;;;;;5112375;28;20297;-81
2024/01/23 04:33:53;;;;;;;38.37;7.43;;;;;;;;;;5112661;28;20194;-80
2024/01/23 04:36:20;;;;;;;30.43;5.33;;;;;;;;;;5112222;28;20281;-81
2024/01/23 04:38:48;;;;;;;31.53;5.63;;;;;;;;;;5111838;28;20236;-80
2024/01/23 04:41:16;;;;;;;35.47;4.93;;;;;;;;;;5112138;28;20280;-81
2024/01/23 04:43:44;;;;;;;35.07;5.70;;;;;;;;;;5112412;28;20198;-80
2024/01/23 04:46:11;;;;;;;36.47;5.43;;;;;;;;;;5111938;28;20886;-81
2024/01/23 04:48:38;;;;;;;29.17;5.30;;;;;;;;;;5111574;28;20194;-81
2024/01/23 04:51:06;;;;;;;33.33;5.23;;;;;;;;;;5112041;27;20239;-81
2024/01/23 04:53:33;;;;;;;31.60;5.23;;;;;;;;;;5112330;28;20194;-80
2024/01/23 04:56:00;;;;;;;35.90;5.80;;;;;;;;;;5112156;28;20194;-80
2024/01/23 04:58:29;;;;;;;27.13;4.63;;;;;;;;;;5110641;28;20280;-80
2024/01/23 05:00:56;;;;;;;30.93;5.47;;;;;;;;;;5111864;28;20583;-81
2024/01/23 05:03:23;;;;;;;39.40;5.97;;;;;;;;;;5112023;28;20277;-80
2024/01/23 05:05:50;;;;;;;33.70;5.87;;;;;;;;;;5110598;28;20574;-80
2024/01/23 05:08:18;;;;;;;34.97;5.43;;;;;;;;;;5111527;28;20280;-81
2024/01/23 05:10:45;;;;;;;30.83;4.97;;;;;;;;;;5111832;28;20760;-81
2024/01/23 05:13:12;;;;;;;25.60;5.43;;;;;;;;;;5111740;28;20230;-80
2024/01/23 05:15:41;;;;;;;38.97;5.17;;;;;;;;;;5111777;28;20194;-80
2024/01/23 05:18:08;;;;;;;35.07;5.63;;;;;;;;;;5111673;28;20241;-80
2024/01/23 05:20:36;;;;;;;34.73;4.87;;;;;;;;;;5111239;28;20487;-80
2024/01/23 05:23:04;;;;;;;35.30;5.10;;;;;;;;;;5111608;28;20292;-80
2024/01/23 05:25:31;;;;;;;38.13;5.63;;;;;;;;;;5112137;28;20221;-80
2024/01/23 05:27:59;;;;;;;33.80;4.77;;;;;;;;;;5113278;28;20232;-80
2024/01/23 05:30:26;;;;;;;32.60;5.00;;;;;;;;;;5118323;27;20268;-81
2024/01/23 05:32:54;;;;;;;36.93;5.40;;;;;;;;;;5118413;27;20204;-81
2024/01/23 05:35:22;;;;;;;36.00;5.17;;;;;;;;;;5118271;27;20201;-81
2024/01/23 05:37:49;;;;;;;33.57;5.50;;;;;;;;;;5118648;27;20213;-80
2024/01/23 05:40:16;;;;;;;30.60;5.17;;;;;;;;;;5118668;27;20277;-80
2024/01/23 05:42:44;;;;;;;41.70;5.57;;;;;;;;;;5118636;27;20572;-81
2024/01/23 05:45:13;;;;;;;37.00;5.87;;;;;;;;;;5118030;27;20665;-81
2024/01/23 05:47:40;;;;;;;35.23;5.03;;;;;;;;;;5118386;27;20221;-79
2024/01/23 05:50:09;;;;;;;33.10;5.17;;;;;;;;;;5118118;27;20284;-81
2024/01/23 05:52:36;;;;;;;38.40;6.03;;;;;;;;;;5118295;27;20197;-81
2024/01/23 05:55:03;;;;;;;37.90;6.07;;;;;;;;;;5118242;27;20670;-81
2024/01/23 05:57:31;;;;;;;43.13;6.23;;;;;;;;;;5118147;27;20194;-80
2024/01/23 05:59:59;;;;;;;38.40;5.80;;;;;;;;;;5118039;27;20709;-80
2024/01/23 06:02:27;;;;;;;44.53;6.13;;;;;;;;;;5117712;27;20231;-80
2024/01/23 06:04:54;;;;;;;38.07;6.63;;;;;;;;;;5118312;27;20197;-80
2024/01/23 06:07:22;;;;;;;41.30;5.77;;;;;;;;;;5118197;27;20233;-80
2024/01/23 06:09:49;;;;;;;33.07;4.93;;;;;;;;;;5118108;27;20200;-82
2024/01/23 06:12:17;;;;;;;34.20;5.57;;;;;;;;;;5118015;27;20554;-83
2024/01/23 06:14:44;;;;;;;37.60;5.97;;;;;;;;;;5118279;27;20234;-82
2024/01/23 06:17:11;;;;;;;37.90;5.73;;;;;;;;;;5118283;27;20285;-82
2024/01/23 06:19:38;;;;;;;42.40;5.80;;;;;;;;;;5117704;27;20221;-82
2024/01/23 06:22:05;;;;;;;41.23;6.00;;;;;;;;;;5117842;27;20228;-82
2024/01/23 06:24:34;;;;;;;39.30;5.07;;;;;;;;;;5116993;27;20198;-82
2024/01/23 06:27:01;;;;;;;34.47;5.30;;;;;;;;;;5117536;27;20213;-83
2024/01/23 06:29:28;;;;;;;40.37;5.03;;;;;;;;;;5118139;27;20277;-82
2024/01/23 06:31:55;;;;;;;46.90;6.03;;;;;;;;;;5117992;27;20274;-82
2024/01/23 06:34:23;;;;;;;35.03;5.23;;;;;;;;;;5117400;27;20281;-82
2024/01/23 06:36:50;;;;;;;35.63;5.83;;;;;;;;;;5117764;27;20206;-82
2024/01/23 06:39:17;;;;;;;41.03;5.23;;;;;;;;;;5116377;27;20208;-83
2024/01/23 06:41:48;;;;;;;38.83;5.73;;;;;;;;;;5114184;28;20280;-82
2024/01/23 06:44:15;;;;;;;36.83;5.47;;;;;;;;;;5114809;28;20221;-82
2024/01/23 06:46:42;;;;;;;36.27;5.27;;;;;;;;;;5114597;28;20285;-82
2024/01/23 06:49:10;;;;;;;47.10;6.17;;;;;;;;;;5113828;28;20284;-81
2024/01/23 06:51:37;;;;;;;35.60;5.53;;;;;;;;;;5114766;28;20644;-82
2024/01/23 06:54:07;;;;;;;38.10;6.63;;;;;;;;;;5114585;28;20207;-80
2024/01/23 06:56:34;;;;;;;38.80;6.00;;;;;;;;;;5114320;28;20194;-79
2024/01/23 06:59:04;;;;;;;32.20;5.90;;;;;;;;;;5114660;28;20197;-80
2024/01/23 07:01:32;;;;;;;44.17;5.97;;;;;;;;;;5108000;27;21023;-81
2024/01/23 07:03:59;;;;;;;38.03;5.47;;;;;;;;;;5100185;28;20197;-81
2024/01/23 07:06:26;;;;;;;43.63;5.77;;;;;;;;;;5110885;27;20335;-79
2024/01/23 07:08:54;;;;;;;38.37;5.63;;;;;;;;;;5093612;28;20258;-80
2024/01/23 07:11:21;;;;;;;46.03;5.30;;;;;;;;;;5093236;28;20655;-80
2024/01/23 07:13:48;;;;;;;32.67;5.60;;;;;;;;;;5093007;28;20325;-81
2024/01/23 07:16:17;;;;;;;38.60;6.07;;;;;;;;;;5093553;28;20285;-81
2024/01/23 07:18:44;;;;;;;48.80;6.10;;;;;;;;;;5093236;28;20293;-78
2024/01/23 07:21:11;;;;;;;42.33;5.33;;;;;;;;;;5093542;28;20646;-79
2024/01/23 07:23:38;;;;;;;39.43;5.30;;;;;;;;;;5093114;28;20274;-78
2024/01/23 07:26:05;;;;;;;37.77;5.33;;;;;;;;;;5093367;28;20608;-80
2024/01/23 07:28:33;;;;;;;42.23;6.03;;;;;;;;;;5092879;28;20314;-81
2024/01/23 07:31:00;;;;;;;35.80;5.23;;;;;;;;;;5101818;28;20659;-80
2024/01/23 07:33:29;;;;;;;44.47;5.70;;;;;;;;;;5113491;28;20197;-80
2024/01/23 07:35:56;;;;;;;30.33;5.67;;;;;;;;;;5112473;28;20190;-81
2024/01/23 07:38:23;;;;;;;39.50;5.40;;;;;;;;;;5113240;27;20194;-80
2024/01/23 07:40:50;;;;;;;41.47;6.27;;;;;;;;;;5113560;28;20293;-80
2024/01/23 07:43:18;;;;;;;38.97;5.10;;;;;;;;;;5113255;28;20292;-81
2024/01/23 07:45:45;;;;;;;36.47;5.47;;;;;;;;;;5112903;28;20198;-81
2024/01/23 07:48:12;;;;;;;46.03;5.23;;;;;;;;;;5112966;28;20330;-80
2024/01/23 07:50:41;;;;;;;39.47;5.47;;;;;;;;;;5112312;28;20616;-81
2024/01/23 07:53:08;;;;;;;36.00;4.50;;;;;;;;;;5112543;28;20614;-80
2024/01/23 07:55:35;;;;;;;35.67;4.90;;;;;;;;;;5112688;28;20288;-80
2024/01/23 07:58:02;;;;;;;40.17;6.03;;;;;;;;;;5113311;28;20284;-80
2024/01/23 08:00:30;;;;;;;38.73;5.63;;;;;;;;;;5112499;28;20348;-80
2024/01/23 08:02:57;;;;;;;41.90;6.03;;;;;;;;;;5112408;28;20225;-81
2024/01/23 08:05:25;;;;;;;30.00;4.53;;;;;;;;;;5112302;28;20646;-80
2024/01/23 08:07:53;;;;;;;33.50;5.80;;;;;;;;;;5112371;28;20639;-81
2024/01/23 08:10:24;;;;;;;37.17;5.17;;;;;;;;;;5112936;28;20247;-80
2024/01/23 08:12:51;;;;;;;42.23;5.43;;;;;;;;;;5112672;28;20301;-81
2024/01/23 08:15:18;;;;;;;39.27;5.30;;;;;;;;;;5112193;28;20585;-80
2024/01/23 08:17:46;;;;;;;35.30;5.30;;;;;;;;;;5112800;28;20597;-81
2024/01/23 08:20:13;;;;;;;32.10;5.03;;;;;;;;;;5112498;28;20204;-80
2024/01/23 08:22:40;;;;;;;37.83;5.10;;;;;;;;;;5111914;28;20273;-80
2024/01/23 08:25:09;;;;;;;41.57;5.30;;;;;;;;;;5112463;28;20284;-80
2024/01/23 08:27:37;;;;;;;37.13;5.23;;;;;;;;;;5112929;28;20257;-81
2024/01/23 08:30:04;;;;;;;42.50;5.67;;;;;;;;;;5103070;28;20205;-81
2024/01/23 08:32:31;;;;;;;36.77;6.47;;;;;;;;;;5092338;28;20638;-80
2024/01/23 08:34:58;;;;;;;37.17;5.00;;;;;;;;;;5091749;28;20198;-79
2024/01/23 08:37:26;;;;;;;35.07;5.07;;;;;;;;;;5105604;28;20674;-81
2024/01/23 08:39:53;;;;;;;33.80;4.40;;;;;;;;;;5112368;28;20288;-81
2024/01/23 08:42:22;;;;;;;39.40;5.40;;;;;;;;;;5111990;28;20209;-80
2024/01/23 08:44:50;;;;;;;40.23;6.03;;;;;;;;;;5111026;28;20741;-80
2024/01/23 08:47:17;;;;;;;46.70;5.80;;;;;;;;;;5109030;27;20323;-79
2024/01/23 08:49:44;;;;;;;35.87;5.53;;;;;;;;;;5109085;28;20301;-79
2024/01/23 08:52:11;;;;;;;32.87;4.37;;;;;;;;;;5108802;28;20198;-77
2024/01/23 08:54:39;;;;;;;46.20;6.37;;;;;;;;;;5108631;28;20681;-79
2024/01/23 08:57:08;;;;;;;47.47;6.60;;;;;;;;;;5108943;28;20643;-79
2024/01/23 08:59:40;;;;;;;33.17;5.47;;;;;;;;;;5108206;28;20222;-78
2024/01/23 09:02:08;;;;;;;41.27;5.37;;;;;;;;;;5108691;28;20283;-78
2024/01/23 09:04:35;;;;;;;31.97;5.00;;;;;;;;;;5107587;28;20198;-78
2024/01/23 09:07:03;;;;;;;34.87;4.40;;;;;;;;;;5108588;28;20229;-80
2024/01/23 09:09:30;;;;;;;43.07;5.50;;;;;;;;;;5108566;28;20575;-78
2024/01/23 09:11:57;;;;;;;38.00;4.97;;;;;;;;;;5107939;28;20234;-79
2024/01/23 09:14:24;;;;;;;33.40;6.43;;;;;;;;;;5107307;28;20329;-80
2024/01/23 09:16:53;;;;;;;42.70;5.87;;;;;;;;;;5110821;28;20293;-79
2024/01/23 09:19:20;;;;;;;35.53;5.13;;;;;;;;;;5111199;28;20788;-79
2024/01/23 09:21:47;;;;;;;38.33;6.17;;;;;;;;;;5110307;28;20190;-79
2024/01/23 09:24:15;;;;;;;39.60;4.93;;;;;;;;;;5107548;28;20635;-79
2024/01/23 09:26:42;;;;;;;32.73;4.73;;;;;;;;;;5111103;28;20189;-79
2024/01/23 09:29:09;;;;;;;30.83;4.60;;;;;;;;;;5103168;28;20233;-79
2024/01/23 09:31:44;;;;;;;34.00;5.13;;;;;;;;;;5100268;28;20228;-81
2024/01/23 09:34:13;;;;;;;31.70;4.97;;;;;;;;;;5100514;28;20685;-80
2024/01/23 09:36:40;;;;;;;33.07;5.47;;;;;;;;;;5107859;28;20201;-79
2024/01/23 09:39:11;;;;;;;33.57;5.20;;;;;;;;;;5110672;28;20274;-80
2024/01/23 09:41:39;;;;;;;32.43;5.60;;;;;;;;;;5110725;28;20758;-80
2024/01/23 09:44:07;;;;;;;34.77;4.80;;;;;;;;;;5111516;28;20666;-79
2024/01/23 09:46:34;;;;;;;35.37;5.90;;;;;;;;;;5111397;28;20198;-79
2024/01/23 09:49:01;;;;;;;39.87;5.27;;;;;;;;;;5110804;28;20253;-79
2024/01/23 09:51:30;;;;;;;33.80;5.00;;;;;;;;;;5111288;28;20194;-79
2024/01/23 09:53:57;;;;;;;31.07;5.70;;;;;;;;;;5117767;28;20284;-80
2024/01/23 09:56:25;;;;;;;29.73;5.10;;;;;;;;;;5114175;27;20262;-80
2024/01/23 09:58:52;;;;;;;40.93;5.70;;;;;;;;;;5111428;28;20227;-79
2024/01/23 10:01:20;;;;;;;33.73;5.40;;;;;;;;;;5111158;28;20197;-80
2024/01/23 10:03:48;;;;;;;35.53;5.50;;;;;;;;;;5111180;28;20677;-80
2024/01/23 10:06:15;;;;;;;27.73;4.83;;;;;;;;;;5111529;28;20198;-79
2024/01/23 10:08:44;;;;;;;32.73;5.20;;;;;;;;;;5110445;28;20322;-79
2024/01/23 10:11:11;;;;;;;26.27;5.17;;;;;;;;;;5110167;28;20678;-78
2024/01/23 10:13:38;;;;;;;29.23;4.93;;;;;;;;;;5105796;28;20317;-80
2024/01/23 10:16:06;;;;;;;31.93;5.30;;;;;;;;;;5110736;28;20575;-80
2024/01/23 10:18:33;;;;;;;36.23;4.67;;;;;;;;;;5115046;28;20288;-80
2024/01/23 10:21:01;;;;;;;32.17;4.80;;;;;;;;;;5115613;27;20228;-79
2024/01/23 10:23:28;;;;;;;30.73;4.47;;;;;;;;;;5114803;28;20289;-81
2024/01/23 10:25:58;;;;;;;30.87;4.83;;;;;;;;;;5114465;28;20222;-80
2024/01/23 10:28:26;;;;;;;27.33;4.60;;;;;;;;;;5114977;28;20229;-80
2024/01/23 10:30:53;;;;;;;28.40;5.07;;;;;;;;;;5114659;28;20262;-80
2024/01/23 10:33:21;;;;;;;30.03;4.77;;;;;;;;;;5114153;28;20205;-80
2024/01/23 10:35:48;;;;;;;36.80;5.27;;;;;;;;;;5102820;28;20300;-80
2024/01/23 10:38:16;;;;;;;33.63;5.30;;;;;;;;;;5117859;27;20205;-80
2024/01/23 10:40:45;;;;;;;32.70;5.83;;;;;;;;;;5111182;28;20561;-80
2024/01/23 10:43:14;;;;;;;35.13;6.00;;;;;;;;;;5104771;28;20243;-80
2024/01/23 10:45:41;;;;;;;29.63;5.13;;;;;;;;;;5114534;28;20304;-80
2024/01/23 10:48:09;;;;;;;32.07;5.43;;;;;;;;;;5114248;28;20218;-80
2024/01/23 10:50:36;;;;;;;34.67;6.10;;;;;;;;;;5114304;28;20193;-79
2024/01/23 10:53:04;;;;;;;33.63;6.03;;;;;;;;;;5114163;28;20292;-80
2024/01/23 10:55:33;;;;;;;25.90;4.83;;;;;;;;;;5108242;27;20219;-78
2024/01/23 10:58:03;;;;;;;29.37;5.20;;;;;;;;;;5113743;28;20193;-80
2024/01/23 11:00:33;;;;;;;36.27;5.47;;;;;;;;;;5112161;28;20197;-82
2024/01/23 11:03:04;;;;;;;32.40;4.90;;;;;;;;;;5109284;28;20206;-79
2024/01/23 11:05:32;;;;;;;32.80;5.20;;;;;;;;;;5104174;28;20285;-80
2024/01/23 11:08:01;;;;;;;35.13;5.33;;;;;;;;;;5106729;28;20209;-79
2024/01/23 11:10:40;;;;;;;27.80;5.70;;;;;;;;;;5109473;28;20638;-80
2024/01/23 11:13:10;;;;;;;29.43;4.90;;;;;;;;;;5110112;28;20341;-80
2024/01/23 11:15:39;;;;;;;35.07;5.53;;;;;;;;;;5110269;28;20224;-80
2024/01/23 11:18:28;;;;;;;33.43;6.43;;;;;;;;;;5110229;28;20194;-79
2024/01/23 11:21:14;;;;;;;39.30;6.23;;;;;;;;;;5109978;28;20194;-78
2024/01/23 11:23:42;;;;;;;31.63;4.87;;;;;;;;;;5110216;28;20284;-79
2024/01/23 11:26:15;;;;;;;32.63;5.67;;;;;;;;;;5112844;28;20229;-80
2024/01/23 11:28:43;;;;;;;36.23;5.87;;;;;;;;;;5110745;28;20214;-80
2024/01/23 11:31:14;;;;;;;39.27;6.73;;;;;;;;;;5110994;28;20194;-79
2024/01/23 11:33:41;;;;;;;30.10;6.10;;;;;;;;;;5110533;28;20250;-79
2024/01/23 11:36:10;;;;;;;35.00;5.77;;;;;;;;;;5111849;28;20843;-79
2024/01/23 11:38:42;;;;;;;37.13;7.30;;;;;;;;;;5102518;28;20213;-79
2024/01/23 11:41:27;;;;;;;37.33;6.30;;;;;;;;;;5112423;28;20225;-79
2024/01/23 11:43:55;;;;;;;42.33;6.53;;;;;;;;;;5111112;28;20284;-78
2024/01/23 11:46:26;;;;;;;35.20;6.20;;;;;;;;;;5103542;27;20285;-81
2024/01/23 11:48:54;;;;;;;35.73;6.03;;;;;;;;;;5111270;28;20955;-82
2024/01/23 11:51:21;;;;;;;29.70;6.23;;;;;;;;;;5113399;28;20738;-81
2024/01/23 11:53:49;;;;;;;35.60;5.30;;;;;;;;;;5112845;28;20205;-82
2024/01/23 11:56:16;;;;;;;33.33;5.63;;;;;;;;;;5113151;27;20193;-82
2024/01/23 11:58:44;;;;;;;36.13;6.70;;;;;;;;;;5113631;28;20198;-81
2024/01/23 12:01:11;;;;;;;33.03;6.47;;;;;;;;;;5113085;28;20640;-82
2024/01/23 12:03:46;;;;;;;36.67;5.80;;;;;;;;;;5112569;28;20236;-80
2024/01/23 12:06:14;;;;;;;36.00;6.20;;;;;;;;;;5112935;28;20197;-82
2024/01/23 12:08:41;;;;;;;39.73;6.30;;;;;;;;;;5112494;28;20235;-81
2024/01/23 12:11:09;;;;;;;38.47;5.93;;;;;;;;;;5112419;27;20929;-82
2024/01/23 12:13:37;;;;;;;32.67;6.17;;;;;;;;;;5112535;28;20684;-82
2024/01/23 12:16:06;;;;;;;39.13;6.70;;;;;;;;;;5112897;28;20209;-82
2024/01/23 12:18:33;;;;;;;41.20;7.07;;;;;;;;;;5112495;28;20565;-82
2024/01/23 12:21:04;;;;;;;35.77;6.33;;;;;;;;;;5112101;28;20692;-80
2024/01/23 12:23:31;;;;;;;38.57;6.23;;;;;;;;;;5117500;28;20194;-80
2024/01/23 12:25:59;;;;;;;39.03;5.70;;;;;;;;;;5112366;28;20705;-80
2024/01/23 12:28:29;;;;;;;32.40;6.40;;;;;;;;;;5115913;28;20190;-79
2024/01/23 12:30:56;;;;;;;37.20;6.87;;;;;;;;;;5111220;28;20677;-81
2024/01/23 12:33:23;;;;;;;34.17;6.30;;;;;;;;;;5111197;28;20734;-81
2024/01/23 12:35:50;;;;;;;34.63;5.57;;;;;;;;;;5110706;28;20289;-80
2024/01/23 12:38:19;;;;;;;29.27;5.70;;;;;;;;;;5110259;28;20272;-81
2024/01/23 12:40:46;;;;;;;36.43;5.77;;;;;;;;;;5111253;28;20241;-81
2024/01/23 12:43:15;;;;;;;26.80;5.47;;;;;;;;;;5111316;28;20202;-80
2024/01/23 12:45:42;;;;;;;37.00;6.63;;;;;;;;;;5111110;28;20194;-79
2024/01/23 12:48:10;;;;;;;32.97;5.40;;;;;;;;;;5110736;28;20751;-79
2024/01/23 12:50:38;;;;;;;33.27;5.57;;;;;;;;;;5111872;28;20928;-80
2024/01/23 12:53:09;;;;;;;34.63;6.23;;;;;;;;;;5098759;28;20194;-79
2024/01/23 12:55:37;;;;;;;26.77;4.90;;;;;;;;;;5091918;28;20195;-80
2024/01/23 12:58:07;;;;;;;33.97;6.43;;;;;;;;;;5104798;28;20296;-80
2024/01/23 13:00:34;;;;;;;27.40;5.30;;;;;;;;;;5081617;28;20209;-80
2024/01/23 13:03:01;;;;;;;32.00;5.90;;;;;;;;;;5111748;28;20567;-79
2024/01/23 13:05:28;;;;;;;29.63;5.63;;;;;;;;;;5111990;28;20198;-81
2024/01/23 13:07:56;;;;;;;25.03;5.47;;;;;;;;;;5111240;27;20288;-81
2024/01/23 13:10:24;;;;;;;24.03;4.80;;;;;;;;;;5091617;28;20702;-80
2024/01/23 13:12:52;;;;;;;26.93;4.70;;;;;;;;;;5091284;28;20249;-80
2024/01/23 13:15:20;;;;;;;25.73;4.17;;;;;;;;;;5091840;28;20194;-81
2024/01/23 13:17:47;;;;;;;29.37;4.33;;;;;;;;;;5091891;28;20194;-80
2024/01/23 13:20:15;;;;;;;19.73;5.30;;;;;;;;;;5091000;28;20244;-81
2024/01/23 13:22:44;;;;;;;27.13;4.00;;;;;;;;;;5091525;28;20233;-80
2024/01/23 13:25:17;;;;;;;21.90;4.40;;;;;;;;;;5091678;28;20667;-80
2024/01/23 13:27:44;;;;;;;21.93;4.00;;;;;;;;;;5091267;28;20205;-79
2024/01/23 13:30:16;;;;;;;22.60;4.13;;;;;;;;;;5091564;28;20349;-80
2024/01/23 13:32:44;;;;;;;22.37;5.30;;;;;;;;;;5091415;28;20202;-79
2024/01/23 13:35:11;;;;;;;17.87;3.40;;;;;;;;;;5091059;28;20198;-80
2024/01/23 13:37:38;;;;;;;20.57;3.40;;;;;;;;;;5107484;28;20279;-80
2024/01/23 13:40:10;;;;;;;23.80;3.77;;;;;;;;;;5111893;28;20280;-80
2024/01/23 13:42:37;;;;;;;17.17;3.80;;;;;;;;;;5111633;28;20233;-81
2024/01/23 13:45:06;;;;;;;20.17;3.87;;;;;;;;;;5111665;28;20232;-79
2024/01/23 13:47:35;;;;;;;19.53;3.87;;;;;;;;;;5111599;28;20206;-81
2024/01/23 13:50:04;;;;;;;26.17;4.70;;;;;;;;;;5113867;28;20217;-80
2024/01/23 13:52:32;;;;;;;13.90;3.03;;;;;;;;;;5116002;27;20198;-80
2024/01/23 13:54:59;;;;;;;19.53;3.20;;;;;;;;;;5115771;28;20293;-80
2024/01/23 13:57:26;;;;;;;17.33;3.33;;;;;;;;;;5115777;27;20232;-81
2024/01/23 13:59:54;;;;;;;15.70;3.10;;;;;;;;;;5115756;28;20232;-80
2024/01/23 14:02:21;;;;;;;11.33;2.87;;;;;;;;;;5116129;27;20229;-80
2024/01/23 14:04:50;;;;;;;8.40;2.57;;;;;;;;;;5115428;28;20221;-80
2024/01/23 14:07:17;;;;;;;12.10;2.50;;;;;;;;;;5115723;28;20666;-81
2024/01/23 14:09:44;;;;;;;13.27;2.60;;;;;;;;;;5115732;28;20233;-81
2024/01/23 14:12:12;;;;;;;10.63;2.53;;;;;;;;;;5115233;28;20293;-80
2024/01/23 14:14:39;;;;;;;9.07;2.27;;;;;;;;;;5115475;28;20254;-80
2024/01/23 14:17:06;;;;;;;9.37;2.30;;;;;;;;;;5114869;28;20285;-80
2024/01/23 14:19:33;;;;;;;9.00;2.80;;;;;;;;;;5115492;28;20636;-80
2024/01/23 14:22:04;;;;;;;10.90;2.27;;;;;;;;;;5115304;27;20294;-81
2024/01/23 14:24:31;;;;;;;8.63;1.67;;;;;;;;;;5115616;28;20194;-81
2024/01/23 14:26:58;;;;;;;7.57;1.70;;;;;;;;;;5114491;28;20641;-81
2024/01/23 14:29:26;;;;;;;4.70;1.30;;;;;;;;;;5115482;28;20225;-80
2024/01/23 14:31:53;;;;;;;4.90;1.30;;;;;;;;;;5114830;28;20224;-81
2024/01/23 14:34:20;;;;;;;4.70;1.30;;;;;;;;;;5115269;28;20277;-80